Погода Вилла-Марияна 2 недели

Кордова, Аргентина

04 - 16 февраля
  • 04февраля
    Сегодня
    +18°
    +29°
    Небольшая облачность
    ВремяПогодаТемператураВлажностьДавлениеВетер, м/сВероятность осадков
    00:00Ясно и безоблачно+19°C78 %747 мм2.1 м/с5 %
    03:00Ясно и безоблачно+18°C85 %747 мм2.1 м/с5 %
    06:00Ясно и безоблачно+17°C90 %747 мм2.0 м/с5 %
    09:00Ясно и безоблачно+21°C78 %748 мм1.1 м/с5 %
    12:00Ясно и безоблачно+25°C54 %748 мм1.7 м/с5 %
    15:00Небольшая облачность+28°C43 %746 мм2.0 м/с5 %
    18:00Практически безоблачно+28°C41 %745 мм2.4 м/с5 %
    21:00Ясно и безоблачно+24°C62 %745 мм2.3 м/с5 %
  • 05февраля
    Воскресенье
    +19°
    +32°
    Ясно и безоблачно
    ВремяПогодаТемператураВлажностьДавлениеВетер, м/сВероятность осадков
    00:00Ясно и безоблачно+21°C70 %746 мм1.8 м/с5 %
    03:00Ясно и безоблачно+19°C74 %744 мм2.2 м/с5 %
    06:00Ясно и безоблачно+19°C76 %744 мм2.6 м/с5 %
    09:00Ясно и безоблачно+24°C71 %744 мм2.4 м/с5 %
    12:00Ясно и безоблачно+28°C52 %743 мм4.2 м/с5 %
    15:00Ясно и безоблачно+31°C43 %741 мм3.3 м/с5 %
    18:00Ясно и безоблачно+31°C44 %740 мм2.8 м/с5 %
    21:00Ясно и безоблачно+26°C60 %740 мм3.4 м/с5 %
  • 06февраля
    Понедельник
    +20°
    +33°
    Ясно и безоблачно
    ВремяПогодаТемператураВлажностьДавлениеВетер, м/сВероятность осадков
    00:00Практически безоблачно+23°C68 %740 мм2.9 м/с5 %
    03:00Ясно и безоблачно+21°C74 %740 мм2.4 м/с5 %
    06:00Небольшая облачность+20°C80 %740 мм2.4 м/с5 %
    09:00Ясно и безоблачно+24°C70 %741 мм2.2 м/с5 %
    12:00Ясно и безоблачно+30°C48 %741 мм3.1 м/с5 %
    15:00Ясно и безоблачно+33°C33 %740 мм1.1 м/с5 %
    18:00Небольшая облачность+33°C34 %739 мм1.0 м/с5 %
    21:00Практически безоблачно+28°C61 %739 мм1.5 м/с4 %
  • 07февраля
    Вторник
    +20°
    +35°
    Ясно и безоблачно
    ВремяПогодаТемператураВлажностьДавлениеВетер, м/сВероятность осадков
    00:00Ясно и безоблачно+24°C56 %741 мм2.9 м/с4 %
    03:00Ясно и безоблачно+22°C64 %740 мм2.5 м/с5 %
    06:00Ясно и безоблачно+21°C72 %740 мм2.4 м/с5 %
    09:00Ясно и безоблачно+25°C66 %741 мм2.6 м/с5 %
    12:00Ясно и безоблачно+32°C44 %741 мм3.0 м/с5 %
    15:00Ясно и безоблачно+34°C31 %740 мм1.5 м/с5 %
    18:00Практически безоблачно+35°C31 %739 мм0.6 м/с5 %
    21:00Ясно и безоблачно+29°C55 %739 мм1.5 м/с17 %
Мы используем cookies
Соглашаюсь